createdAt,value
2018-03-17T00:01:55.231Z,88.50
2018-03-17T00:04:22.796Z,88.40
2018-03-17T00:06:50.418Z,88.50
2018-03-17T00:09:18.011Z,88.30
2018-03-17T00:11:45.633Z,87.90
2018-03-17T00:14:13.255Z,88.10
2018-03-17T00:16:40.899Z,88.50
2018-03-17T00:19:08.438Z,88.40
2018-03-17T00:21:36.046Z,88.20
2018-03-17T00:24:03.642Z,88.10
2018-03-17T00:26:31.271Z,87.90
2018-03-17T00:28:58.838Z,87.80
2018-03-17T00:31:26.819Z,87.30
2018-03-17T00:33:54.435Z,87.30
2018-03-17T00:36:22.038Z,87.40
2018-03-17T00:38:49.618Z,87.40
2018-03-17T00:41:17.198Z,87.40
2018-03-17T00:43:44.768Z,87.40
2018-03-17T00:46:12.395Z,87.30
2018-03-17T00:48:39.936Z,87.40
2018-03-17T00:51:07.564Z,87.30
2018-03-17T00:53:35.134Z,87.60
2018-03-17T00:56:02.746Z,87.00
2018-03-17T00:58:30.335Z,87.20
2018-03-17T01:00:57.978Z,87.20
2018-03-17T01:03:25.630Z,87.30
2018-03-17T01:05:53.215Z,87.60
2018-03-17T01:08:20.795Z,87.60
2018-03-17T01:10:48.386Z,87.70
2018-03-17T01:13:15.978Z,87.80
2018-03-17T01:15:43.524Z,87.30
2018-03-17T01:18:11.120Z,87.30
2018-03-17T01:20:39.075Z,87.20
2018-03-17T01:23:06.675Z,87.20
2018-03-17T01:25:34.279Z,87.30
2018-03-17T01:28:01.921Z,87.30
2018-03-17T01:30:29.499Z,87.20
2018-03-17T01:32:57.074Z,87.10
2018-03-17T01:35:24.716Z,87.10
2018-03-17T01:37:52.331Z,87.20
2018-03-17T01:40:19.975Z,87.00
2018-03-17T01:42:47.572Z,87.10
2018-03-17T01:45:15.138Z,87.10
2018-03-17T01:47:42.740Z,87.10
2018-03-17T01:50:10.334Z,87.10
2018-03-17T01:52:37.960Z,87.20
2018-03-17T01:55:05.542Z,87.20
2018-03-17T01:57:33.175Z,87.20
2018-03-17T02:00:00.761Z,87.40
2018-03-17T02:02:28.310Z,87.40
2018-03-17T02:04:55.894Z,87.40
2018-03-17T02:07:23.498Z,87.10
2018-03-17T02:09:51.129Z,87.10
2018-03-17T02:12:18.727Z,87.00
2018-03-17T02:14:46.719Z,86.90
2018-03-17T02:17:14.302Z,86.90
2018-03-17T02:19:41.882Z,87.10
2018-03-17T02:22:09.531Z,87.30
2018-03-17T02:24:37.102Z,87.20
2018-03-17T02:27:04.736Z,87.30
2018-03-17T02:29:32.377Z,87.40
2018-03-17T02:31:59.971Z,87.30
2018-03-17T02:34:27.560Z,87.40
2018-03-17T02:37:03.643Z,87.60
2018-03-17T02:39:31.263Z,87.60
2018-03-17T02:41:58.834Z,87.40
2018-03-17T02:44:26.452Z,87.40
2018-03-17T02:46:54.134Z,87.40
2018-03-17T02:49:21.724Z,87.70
2018-03-17T02:51:49.330Z,87.70
2018-03-17T02:54:16.920Z,88.30
2018-03-17T02:56:44.524Z,88.30
2018-03-17T02:59:12.146Z,88.20
2018-03-17T03:01:39.720Z,89.10
2018-03-17T03:04:07.342Z,89.40
2018-03-17T03:06:34.950Z,89.50
2018-03-17T03:09:02.529Z,89.50
2018-03-17T03:11:30.099Z,89.50
2018-03-17T03:13:57.697Z,89.50
2018-03-17T03:16:25.316Z,89.70
2018-03-17T03:18:52.912Z,89.70
2018-03-17T03:21:20.556Z,89.70
2018-03-17T03:23:48.125Z,89.70
2018-03-17T03:26:15.735Z,89.60
2018-03-17T03:28:43.333Z,89.60
2018-03-17T03:31:10.965Z,89.50
2018-03-17T03:33:38.523Z,89.50
2018-03-17T03:36:06.210Z,89.50
2018-03-17T03:38:33.840Z,89.50
2018-03-17T03:41:01.490Z,89.40
2018-03-17T03:43:29.111Z,89.20
2018-03-17T03:45:56.700Z,89.10
2018-03-17T03:48:24.328Z,89.10
2018-03-17T03:50:51.983Z,88.80
2018-03-17T03:53:19.569Z,88.70
2018-03-17T03:55:47.207Z,88.70
2018-03-17T03:58:14.784Z,88.60
2018-03-17T04:00:42.780Z,88.50
2018-03-17T04:03:10.360Z,88.50
2018-03-17T04:05:38.021Z,88.50
2018-03-17T04:08:05.604Z,88.50
2018-03-17T04:10:33.199Z,88.40
2018-03-17T04:13:00.775Z,88.50
2018-03-17T04:15:28.361Z,88.30
2018-03-17T04:17:55.944Z,88.00
2018-03-17T04:20:23.511Z,87.70
2018-03-17T04:22:51.172Z,87.70
2018-03-17T04:25:18.743Z,87.30
2018-03-17T04:27:46.354Z,87.30
2018-03-17T04:30:13.914Z,87.20
2018-03-17T04:32:41.569Z,87.10
2018-03-17T04:35:09.172Z,86.80
2018-03-17T04:37:36.771Z,86.80
2018-03-17T04:40:04.377Z,86.70
2018-03-17T04:42:32.036Z,86.90
2018-03-17T04:44:59.660Z,86.80
2018-03-17T04:47:27.336Z,86.80
2018-03-17T04:49:54.908Z,86.80
2018-03-17T04:52:22.519Z,86.70
2018-03-17T04:54:50.131Z,86.60
2018-03-17T04:57:17.788Z,86.60
2018-03-17T04:59:45.399Z,86.70
2018-03-17T05:02:13.003Z,86.90
2018-03-17T05:04:40.580Z,86.90
2018-03-17T05:07:08.223Z,86.90
2018-03-17T05:09:35.856Z,86.80
2018-03-17T05:12:03.495Z,86.90
2018-03-17T05:14:31.100Z,87.10
2018-03-17T05:16:58.741Z,87.30
2018-03-17T05:19:26.377Z,87.40
2018-03-17T05:21:53.979Z,87.40
2018-03-17T05:24:21.545Z,87.60
2018-03-17T05:26:49.184Z,87.70
2018-03-17T05:29:16.819Z,87.90
2018-03-17T05:31:44.445Z,88.00
2018-03-17T05:34:12.443Z,88.00
2018-03-17T05:36:40.075Z,87.90
2018-03-17T05:39:07.694Z,87.80
2018-03-17T05:41:35.283Z,87.70
2018-03-17T05:44:03.318Z,87.60
2018-03-17T05:46:30.987Z,87.60
2018-03-17T05:48:58.612Z,87.60
2018-03-17T05:51:26.190Z,87.60
2018-03-17T05:53:53.799Z,87.70
2018-03-17T05:56:21.371Z,87.70
2018-03-17T05:58:48.961Z,87.70
2018-03-17T06:01:16.666Z,87.70
2018-03-17T06:03:44.183Z,87.70
2018-03-17T06:06:11.777Z,87.60
2018-03-17T06:08:39.401Z,87.70
2018-03-17T06:11:07.011Z,87.40
2018-03-17T06:13:34.641Z,87.40
2018-03-17T06:16:02.300Z,87.70
2018-03-17T06:18:29.895Z,87.60
2018-03-17T06:20:57.519Z,87.30
2018-03-17T06:23:25.128Z,87.20
2018-03-17T06:25:52.703Z,87.20
2018-03-17T06:28:20.292Z,87.10
2018-03-17T06:30:47.956Z,87.20
2018-03-17T06:33:15.562Z,86.80
2018-03-17T06:35:43.180Z,87.00
2018-03-17T06:38:10.822Z,87.10
2018-03-17T06:40:38.407Z,86.90
2018-03-17T06:43:06.048Z,86.70
2018-03-17T06:45:33.662Z,86.40
2018-03-17T06:48:01.284Z,86.50
2018-03-17T06:50:28.886Z,86.60
2018-03-17T06:52:56.470Z,86.60
2018-03-17T06:55:24.120Z,86.60
2018-03-17T06:57:51.694Z,86.70
2018-03-17T07:00:19.304Z,86.60
2018-03-17T07:02:46.897Z,86.40
2018-03-17T07:05:14.488Z,86.50
2018-03-17T07:07:42.079Z,86.60
2018-03-17T07:10:10.132Z,86.30
2018-03-17T07:12:37.748Z,86.30
2018-03-17T07:15:05.342Z,86.60
2018-03-17T07:17:32.941Z,86.60
2018-03-17T07:20:00.537Z,86.30
2018-03-17T07:22:28.125Z,86.30
2018-03-17T07:24:55.745Z,86.30
2018-03-17T07:27:23.320Z,86.20
2018-03-17T07:29:51.003Z,86.30
2018-03-17T07:32:18.628Z,86.20
2018-03-17T07:34:46.241Z,85.90
2018-03-17T07:37:13.895Z,85.80
2018-03-17T07:39:41.902Z,85.90
2018-03-17T07:42:09.545Z,85.90
2018-03-17T07:44:37.127Z,85.90
2018-03-17T07:47:04.752Z,85.70
2018-03-17T07:49:32.746Z,85.90
2018-03-17T07:52:00.336Z,85.90
2018-03-17T07:54:27.922Z,85.80
2018-03-17T07:56:55.981Z,85.70
2018-03-17T07:59:23.570Z,85.70
2018-03-17T08:01:51.149Z,85.60
2018-03-17T08:04:18.731Z,85.50
2018-03-17T08:06:46.364Z,85.70
2018-03-17T08:09:14.054Z,85.50
2018-03-17T08:11:42.101Z,85.40
2018-03-17T08:14:09.777Z,85.40
2018-03-17T08:16:38.450Z,85.40
2018-03-17T08:19:06.041Z,85.50
2018-03-17T08:21:33.641Z,85.50
2018-03-17T08:24:01.213Z,85.70
2018-03-17T08:26:28.808Z,85.60
2018-03-17T08:28:56.378Z,85.90
2018-03-17T08:31:24.144Z,85.50
2018-03-17T08:33:51.709Z,85.40
2018-03-17T08:36:19.372Z,85.10
2018-03-17T08:38:48.186Z,85.30
2018-03-17T08:41:28.777Z,85.10
2018-03-17T08:44:07.864Z,85.10
2018-03-17T08:46:35.865Z,85.10
2018-03-17T08:49:03.487Z,85.10
2018-03-17T08:51:31.150Z,84.80
2018-03-17T08:53:59.143Z,84.30
2018-03-17T08:56:26.755Z,84.30
2018-03-17T08:58:54.363Z,84.20
2018-03-17T09:01:22.016Z,84.00
2018-03-17T09:03:49.576Z,83.80
2018-03-17T09:06:17.227Z,83.70
2018-03-17T09:08:45.208Z,83.20
2018-03-17T09:11:12.781Z,83.20
2018-03-17T09:13:40.427Z,83.40
2018-03-17T09:16:08.040Z,83.20
2018-03-17T09:18:35.686Z,83.10
2018-03-17T09:21:03.278Z,83.10
2018-03-17T09:23:30.881Z,83.00
2018-03-17T09:25:58.455Z,82.90
2018-03-17T09:28:26.076Z,83.10
2018-03-17T09:30:53.732Z,83.40
2018-03-17T09:33:21.334Z,82.90
2018-03-17T09:35:48.942Z,82.80
2018-03-17T09:38:23.544Z,82.70
2018-03-17T09:40:51.114Z,82.70
2018-03-17T09:43:18.724Z,82.50
2018-03-17T09:45:46.312Z,82.40
2018-03-17T09:48:13.953Z,82.30
2018-03-17T09:50:41.531Z,82.40
2018-03-17T09:53:09.197Z,82.60
2018-03-17T09:55:36.766Z,82.40
2018-03-17T09:58:04.390Z,82.20
2018-03-17T10:00:32.001Z,82.20
2018-03-17T10:02:59.642Z,82.00
2018-03-17T10:05:27.268Z,82.00
2018-03-17T10:07:54.868Z,81.70
2018-03-17T10:10:22.499Z,81.50
2018-03-17T10:12:50.115Z,81.90
2018-03-17T10:15:17.694Z,81.70
2018-03-17T10:17:45.261Z,81.50
2018-03-17T10:20:12.912Z,81.50
2018-03-17T10:22:40.481Z,81.40
2018-03-17T10:25:08.078Z,81.60
2018-03-17T10:27:35.720Z,81.70
2018-03-17T10:30:03.321Z,81.60
2018-03-17T10:32:30.924Z,80.90
2018-03-17T10:34:58.580Z,81.50
2018-03-17T10:37:26.168Z,81.10
2018-03-17T10:39:53.804Z,81.20
2018-03-17T10:42:21.380Z,81.10
2018-03-17T10:44:49.028Z,81.60
2018-03-17T10:47:16.619Z,81.40
2018-03-17T10:49:44.288Z,81.60
2018-03-17T10:52:11.870Z,80.90
2018-03-17T10:54:39.465Z,80.90
2018-03-17T10:57:07.099Z,80.90
2018-03-17T10:59:34.732Z,81.10
2018-03-17T11:02:05.636Z,81.00
2018-03-17T11:04:33.296Z,81.00
2018-03-17T11:07:00.908Z,81.00
2018-03-17T11:09:28.500Z,80.70
2018-03-17T11:11:56.983Z,80.90
2018-03-17T11:14:24.631Z,80.90
2018-03-17T11:16:52.298Z,80.70
2018-03-17T11:19:19.853Z,80.10
2018-03-17T11:21:47.439Z,79.70
2018-03-17T11:24:15.067Z,79.70
2018-03-17T11:26:42.675Z,79.40
2018-03-17T11:29:10.255Z,79.20
2018-03-17T11:31:37.890Z,79.30
2018-03-17T11:34:05.493Z,79.20
2018-03-17T11:36:33.084Z,79.50
2018-03-17T11:39:00.683Z,79.30
2018-03-17T11:41:28.464Z,79.60
2018-03-17T11:43:56.067Z,79.40
2018-03-17T11:46:23.697Z,78.80
2018-03-17T11:48:51.338Z,79.30
2018-03-17T11:51:18.938Z,79.50
2018-03-17T11:53:53.235Z,79.30
2018-03-17T11:56:20.839Z,79.30
2018-03-17T11:58:48.499Z,79.60
2018-03-17T12:01:16.501Z,79.20
2018-03-17T12:03:44.102Z,79.20
2018-03-17T12:06:11.756Z,78.80
2018-03-17T12:08:39.374Z,78.90
2018-03-17T12:11:06.983Z,78.90
2018-03-17T12:13:34.590Z,79.20
2018-03-17T12:16:02.184Z,79.10
2018-03-17T12:18:29.811Z,79.40
2018-03-17T12:20:57.414Z,79.60
2018-03-17T12:23:25.036Z,79.70
2018-03-17T12:25:52.660Z,79.20
2018-03-17T12:28:20.264Z,78.90
2018-03-17T12:30:47.860Z,78.80
2018-03-17T12:33:15.479Z,78.90
2018-03-17T12:35:43.071Z,78.80
2018-03-17T12:38:11.005Z,79.20
2018-03-17T12:40:38.630Z,78.60
2018-03-17T12:43:06.252Z,78.80
2018-03-17T12:45:33.811Z,79.20
2018-03-17T12:48:01.465Z,79.50
2018-03-17T12:50:29.104Z,79.30
2018-03-17T12:52:56.703Z,79.20
2018-03-17T12:55:24.274Z,78.90
2018-03-17T12:57:51.901Z,78.90
2018-03-17T13:00:19.564Z,79.20
2018-03-17T13:02:47.176Z,78.90
2018-03-17T13:05:14.772Z,78.90
2018-03-17T13:07:42.382Z,78.40
2018-03-17T13:10:10.388Z,78.90
2018-03-17T13:12:38.013Z,78.90
2018-03-17T13:15:06.042Z,79.30
2018-03-17T13:17:33.675Z,79.30
2018-03-17T13:20:01.292Z,79.10
2018-03-17T13:22:52.652Z,79.20
2018-03-17T13:25:20.256Z,79.10
2018-03-17T13:27:59.672Z,79.10
2018-03-17T13:30:27.273Z,79.20
2018-03-17T13:32:58.005Z,78.70
2018-03-17T13:35:37.295Z,78.70
2018-03-17T13:38:04.964Z,78.40
2018-03-17T13:40:43.567Z,78.40
2018-03-17T13:43:11.287Z,78.20
2018-03-17T13:45:38.947Z,78.60
2018-03-17T13:48:06.659Z,78.50
2018-03-17T13:50:34.304Z,78.70
2018-03-17T13:53:01.900Z,78.70
2018-03-17T13:55:29.652Z,78.50
2018-03-17T13:57:57.224Z,78.30
2018-03-17T14:00:25.255Z,79.10
2018-03-17T14:02:52.836Z,79.10
2018-03-17T14:05:20.495Z,79.40
2018-03-17T14:07:48.152Z,79.60
2018-03-17T14:10:15.792Z,79.20
2018-03-17T14:12:43.352Z,79.20
2018-03-17T14:15:10.968Z,79.50
2018-03-17T14:17:38.689Z,79.40
2018-03-17T14:20:06.340Z,79.60
2018-03-17T14:22:34.010Z,79.70
2018-03-17T14:25:01.660Z,79.50
2018-03-17T14:27:29.257Z,79.30
2018-03-17T14:29:57.281Z,79.40
2018-03-17T14:32:25.422Z,79.80
2018-03-17T14:34:53.231Z,79.80
2018-03-17T14:37:20.843Z,79.70
2018-03-17T14:39:48.492Z,79.70
2018-03-17T14:42:16.070Z,79.80
2018-03-17T14:44:43.692Z,79.80
2018-03-17T14:47:11.688Z,80.00
2018-03-17T14:49:39.321Z,80.00
2018-03-17T14:52:06.949Z,80.20
2018-03-17T14:54:34.708Z,80.10
2018-03-17T14:57:02.484Z,79.90
2018-03-17T14:59:30.429Z,80.20
2018-03-17T15:01:58.485Z,79.80
2018-03-17T15:04:26.065Z,79.80
2018-03-17T15:06:53.704Z,79.90
2018-03-17T15:09:21.354Z,79.90
2018-03-17T15:11:48.976Z,79.80
2018-03-17T15:14:16.649Z,79.90
2018-03-17T15:16:44.272Z,79.90
2018-03-17T15:19:11.927Z,79.70
2018-03-17T15:21:39.569Z,79.50
2018-03-17T15:24:07.288Z,79.80
2018-03-17T15:26:35.041Z,79.70
2018-03-17T15:29:02.667Z,79.80
2018-03-17T15:31:31.048Z,79.80
2018-03-17T15:33:58.787Z,79.70
2018-03-17T15:36:32.520Z,79.50
2018-03-17T15:39:01.329Z,79.60
2018-03-17T15:41:28.985Z,79.30
2018-03-17T15:43:58.755Z,79.80
2018-03-17T15:46:26.974Z,79.80
2018-03-17T15:48:54.998Z,79.60
2018-03-17T15:51:22.735Z,79.60
2018-03-17T15:53:50.405Z,79.70
2018-03-17T15:56:18.201Z,79.90
2018-03-17T15:58:48.119Z,80.20
2018-03-17T16:01:15.795Z,80.50
2018-03-17T16:03:43.413Z,80.10
2018-03-17T16:06:11.132Z,80.30
2018-03-17T16:08:38.776Z,80.20
2018-03-17T16:11:06.391Z,80.20
2018-03-17T16:13:34.002Z,80.00
2018-03-17T16:16:01.604Z,80.10
2018-03-17T16:18:29.263Z,79.90
2018-03-17T16:20:56.863Z,79.90
2018-03-17T16:23:24.523Z,79.90
2018-03-17T16:25:52.132Z,79.80
2018-03-17T16:28:19.870Z,79.90
2018-03-17T16:30:47.831Z,80.00
2018-03-17T16:33:15.685Z,80.10
2018-03-17T16:35:43.256Z,80.10
2018-03-17T16:38:10.922Z,79.90
2018-03-17T16:40:38.576Z,80.20
2018-03-17T16:43:06.375Z,80.00
2018-03-17T16:45:33.976Z,79.90
2018-03-17T16:48:01.640Z,80.10
2018-03-17T16:50:29.218Z,80.00
2018-03-17T16:52:57.268Z,80.00
2018-03-17T16:55:24.869Z,80.00
2018-03-17T16:57:52.520Z,79.90
2018-03-17T17:00:20.144Z,79.80
2018-03-17T17:02:47.756Z,80.00
2018-03-17T17:05:15.353Z,79.90
2018-03-17T17:07:42.963Z,80.00
2018-03-17T17:10:11.006Z,80.00
2018-03-17T17:12:38.629Z,79.90
2018-03-17T17:15:07.202Z,79.70
2018-03-17T17:17:35.771Z,79.70
2018-03-17T17:20:03.376Z,79.50
2018-03-17T17:22:31.038Z,79.60
2018-03-17T17:24:58.696Z,79.60
2018-03-17T17:27:26.562Z,79.80
2018-03-17T17:29:54.188Z,79.90
2018-03-17T17:32:21.792Z,79.90
2018-03-17T17:34:49.435Z,79.90
2018-03-17T17:37:17.021Z,79.90
2018-03-17T17:39:45.012Z,79.90
2018-03-17T17:42:12.698Z,79.90
2018-03-17T17:44:40.292Z,79.60
2018-03-17T17:47:07.925Z,79.70
2018-03-17T17:49:35.524Z,79.70
2018-03-17T17:52:03.142Z,79.80
2018-03-17T17:54:30.756Z,79.70
2018-03-17T17:56:58.407Z,79.70
2018-03-17T17:59:26.025Z,79.90
2018-03-17T18:01:53.704Z,79.80
2018-03-17T18:04:21.352Z,79.90
2018-03-17T18:06:48.935Z,79.90
2018-03-17T18:09:16.581Z,80.00
2018-03-17T18:11:44.172Z,79.80
2018-03-17T18:14:11.804Z,79.80
2018-03-17T18:16:39.418Z,79.90
2018-03-17T18:19:07.029Z,80.00
2018-03-17T18:21:34.632Z,80.00
2018-03-17T18:24:02.272Z,80.10
2018-03-17T18:26:29.880Z,79.90
2018-03-17T18:28:57.530Z,80.10
2018-03-17T18:31:25.207Z,80.00
2018-03-17T18:33:52.831Z,80.00
2018-03-17T18:36:20.445Z,79.90
2018-03-17T18:38:48.056Z,80.00
2018-03-17T18:41:15.672Z,80.00
2018-03-17T18:43:43.245Z,80.10
2018-03-17T18:46:10.872Z,80.00
2018-03-17T18:48:38.467Z,80.00
2018-03-17T18:51:06.084Z,80.00
2018-03-17T18:53:33.719Z,80.00
2018-03-17T18:56:01.377Z,80.10
2018-03-17T18:58:29.019Z,80.20
2018-03-17T19:00:56.629Z,80.30
2018-03-17T19:03:24.281Z,80.30
2018-03-17T19:05:52.172Z,80.50
2018-03-17T19:08:19.767Z,80.50
2018-03-17T19:10:47.583Z,80.20
2018-03-17T19:13:15.185Z,80.30
2018-03-17T19:15:42.852Z,80.30
2018-03-17T19:18:10.422Z,80.30
2018-03-17T19:20:38.085Z,80.50
2018-03-17T19:23:05.683Z,80.30
2018-03-17T19:25:33.337Z,80.50
2018-03-17T19:28:00.964Z,80.50
2018-03-17T19:30:28.592Z,80.30
2018-03-17T19:32:56.224Z,80.50
2018-03-17T19:35:23.832Z,80.60
2018-03-17T19:37:51.469Z,80.30
2018-03-17T19:40:19.504Z,80.60
2018-03-17T19:42:47.160Z,80.60
2018-03-17T19:45:14.764Z,80.60
2018-03-17T19:47:42.359Z,80.60
2018-03-17T19:50:09.934Z,80.60
2018-03-17T19:52:37.544Z,80.90
2018-03-17T19:55:05.139Z,80.90
2018-03-17T19:57:32.767Z,80.90
2018-03-17T20:00:00.369Z,80.90
2018-03-17T20:02:28.095Z,81.10
2018-03-17T20:04:55.684Z,81.10
2018-03-17T20:07:23.292Z,81.20
2018-03-17T20:09:51.012Z,81.10
2018-03-17T20:12:18.616Z,81.20
2018-03-17T20:14:46.263Z,81.10
2018-03-17T20:17:13.883Z,81.10
2018-03-17T20:19:41.523Z,81.20
2018-03-17T20:22:09.132Z,81.20
2018-03-17T20:24:36.728Z,80.90
2018-03-17T20:27:04.343Z,81.00
2018-03-17T20:29:31.938Z,81.00
2018-03-17T20:31:59.633Z,81.10
2018-03-17T20:34:27.224Z,81.00
2018-03-17T20:36:54.831Z,81.00
2018-03-17T20:39:22.440Z,81.10
2018-03-17T20:41:50.050Z,81.10
2018-03-17T20:44:17.615Z,81.00
2018-03-17T20:46:45.252Z,81.10
2018-03-17T20:49:12.867Z,81.20
2018-03-17T20:51:40.507Z,81.10
2018-03-17T20:54:08.121Z,81.00
2018-03-17T20:56:35.699Z,81.20
2018-03-17T20:59:03.332Z,81.20
2018-03-17T21:01:31.356Z,81.40
2018-03-17T21:03:59.048Z,81.40
2018-03-17T21:06:26.659Z,81.70
2018-03-17T21:08:54.275Z,81.60
2018-03-17T21:11:22.263Z,81.70
2018-03-17T21:13:49.864Z,81.70
2018-03-17T21:16:17.524Z,82.10
2018-03-17T21:18:45.184Z,82.00
2018-03-17T21:21:12.770Z,82.10
2018-03-17T21:23:40.400Z,81.90
2018-03-17T21:26:07.994Z,81.90
2018-03-17T21:28:35.630Z,82.00
2018-03-17T21:31:03.236Z,82.10
2018-03-17T21:33:31.250Z,82.20
2018-03-17T21:35:58.831Z,82.20
2018-03-17T21:38:26.505Z,82.20
2018-03-17T21:40:54.157Z,82.30
2018-03-17T21:43:21.777Z,82.10
2018-03-17T21:45:49.517Z,82.30
2018-03-17T21:48:17.123Z,82.20
2018-03-17T21:50:44.742Z,82.00
2018-03-17T21:53:12.342Z,81.90
2018-03-17T21:55:39.952Z,81.60
2018-03-17T21:58:07.570Z,81.90
2018-03-17T22:00:35.228Z,81.70
2018-03-17T22:03:02.849Z,81.90
2018-03-17T22:05:30.503Z,82.10
2018-03-17T22:07:58.146Z,82.40
2018-03-17T22:10:25.812Z,83.00
2018-03-17T22:12:53.425Z,83.60
2018-03-17T22:15:21.905Z,84.20
2018-03-17T22:17:49.526Z,84.60
2018-03-17T22:20:17.229Z,84.80
2018-03-17T22:22:44.813Z,85.40
2018-03-17T22:25:12.423Z,85.80
2018-03-17T22:27:40.059Z,86.20
2018-03-17T22:30:07.700Z,86.50
2018-03-17T22:32:35.326Z,86.70
2018-03-17T22:35:03.072Z,86.80
2018-03-17T22:37:30.703Z,86.80
2018-03-17T22:39:58.341Z,86.70
2018-03-17T22:42:25.940Z,86.50
2018-03-17T22:44:53.557Z,86.40
2018-03-17T22:47:21.180Z,86.80
2018-03-17T22:49:48.796Z,87.00
2018-03-17T22:52:16.465Z,87.10
2018-03-17T22:54:44.094Z,87.20
2018-03-17T22:57:11.740Z,87.20
2018-03-17T22:59:39.332Z,87.60
2018-03-17T23:02:06.963Z,87.90
2018-03-17T23:04:34.564Z,87.90
2018-03-17T23:07:02.179Z,87.90
2018-03-17T23:09:29.778Z,87.70
2018-03-17T23:11:57.422Z,87.80
2018-03-17T23:14:25.034Z,87.70
2018-03-17T23:16:52.668Z,87.70
2018-03-17T23:19:20.264Z,87.80
2018-03-17T23:21:47.894Z,87.90
2018-03-17T23:24:15.501Z,88.00
2018-03-17T23:26:43.168Z,88.20
2018-03-17T23:29:10.765Z,88.30
2018-03-17T23:31:38.360Z,88.30
2018-03-17T23:34:05.987Z,88.40
2018-03-17T23:36:33.679Z,88.30
2018-03-17T23:39:01.361Z,88.20
2018-03-17T23:41:28.992Z,88.30
2018-03-17T23:43:56.575Z,88.20
2018-03-17T23:46:24.219Z,88.10
2018-03-17T23:48:51.830Z,88.10
2018-03-17T23:51:19.461Z,88.20
2018-03-17T23:53:47.081Z,88.40
2018-03-17T23:56:14.694Z,88.20
2018-03-17T23:58:42.335Z,88.20
